Time;durP1;ratioP1;P1;durP2;ratioP2;P2;SDS_P1;SDS_P2;PMS_P1;PMS_P2;Temp;Humidity;BMP_temperature;BMP_pressure;BME280_temperature;BME280_humidity;BME280_pressure;Samples;Min_cycle;Max_cycle;Signal;HPM_P1;HPM_P2
2024/02/04 00:02:42;;;;;;;15.18;10.70;;;;;;;;;;9872293;29;20079;-79
2024/02/04 00:07:33;;;;;;;13.63;10.40;;;;;;;;;;9874820;29;20134;-78
2024/02/04 00:12:26;;;;;;;16.55;10.50;;;;;;;;;;9873208;29;20051;-77
2024/02/04 00:17:18;;;;;;;13.85;9.55;;;;;;;;;;9866577;29;20127;-77
2024/02/04 00:22:10;;;;;;;14.23;10.30;;;;;;;;;;9873809;29;20402;-77
2024/02/04 00:27:02;;;;;;;15.43;10.45;;;;;;;;;;9873965;29;20056;-78
2024/02/04 00:31:54;;;;;;;15.50;12.27;;;;;;;;;;9873485;29;20076;-79
2024/02/04 00:36:46;;;;;;;19.85;14.38;;;;;;;;;;9873219;29;20039;-81
2024/02/04 00:41:38;;;;;;;18.65;12.82;;;;;;;;;;9855683;29;20114;-78
2024/02/04 00:46:30;;;;;;;21.38;15.90;;;;;;;;;;9864008;29;20451;-80
2024/02/04 00:51:22;;;;;;;23.67;16.42;;;;;;;;;;9873084;29;20210;-81
2024/02/04 00:56:14;;;;;;;22.75;14.02;;;;;;;;;;9856126;29;20348;-81
2024/02/04 01:01:06;;;;;;;27.27;21.70;;;;;;;;;;9874924;29;20071;-81
2024/02/04 01:05:58;;;;;;;26.02;16.27;;;;;;;;;;9874879;29;20343;-80
2024/02/04 01:10:53;;;;;;;16.45;11.20;;;;;;;;;;9875163;29;20402;-81
2024/02/04 01:15:45;;;;;;;17.98;11.98;;;;;;;;;;9874945;29;20083;-81
2024/02/04 01:20:37;;;;;;;18.38;11.35;;;;;;;;;;9875004;29;20055;-81
2024/02/04 01:25:29;;;;;;;13.02;10.52;;;;;;;;;;9874891;29;20134;-80
2024/02/04 01:30:20;;;;;;;19.08;11.63;;;;;;;;;;9874392;29;20098;-78
2024/02/04 01:35:12;;;;;;;18.65;11.48;;;;;;;;;;9872408;29;20391;-78
2024/02/04 01:40:05;;;;;;;20.25;12.93;;;;;;;;;;9872424;29;20119;-78
2024/02/04 01:44:57;;;;;;;17.85;12.80;;;;;;;;;;9873991;29;20040;-78
2024/02/04 01:49:49;;;;;;;18.73;13.63;;;;;;;;;;9873399;29;20048;-78
2024/02/04 01:54:42;;;;;;;22.88;12.50;;;;;;;;;;9871842;29;20467;-78
2024/02/04 01:59:34;;;;;;;15.85;12.43;;;;;;;;;;9856629;29;20047;-79
2024/02/04 02:04:26;;;;;;;18.13;11.63;;;;;;;;;;9855692;29;20526;-81
2024/02/04 02:09:18;;;;;;;15.30;11.05;;;;;;;;;;9871445;29;20482;-81
2024/02/04 02:14:16;;;;;;;18.45;10.25;;;;;;;;;;9870786;29;20138;-78
2024/02/04 02:19:39;;;;;;;13.10;9.93;;;;;;;;;;9854645;29;20043;-78
2024/02/04 02:24:34;;;;;;;12.15;9.45;;;;;;;;;;9856225;29;20463;-81
2024/02/04 02:29:26;;;;;;;10.48;9.23;;;;;;;;;;9872233;29;20319;-81
2024/02/04 02:34:18;;;;;;;13.60;7.82;;;;;;;;;;9872786;29;20514;-81
2024/02/04 02:39:32;;;;;;;12.05;8.10;;;;;;;;;;9869625;29;20420;-80
2024/02/04 02:44:26;;;;;;;13.10;8.30;;;;;;;;;;9844997;29;20048;-78
2024/02/04 02:49:18;;;;;;;11.30;8.27;;;;;;;;;;9835293;29;20500;-80
2024/02/04 02:54:11;;;;;;;17.70;11.02;;;;;;;;;;9870573;29;20166;-81
2024/02/04 02:59:04;;;;;;;16.52;10.07;;;;;;;;;;9868294;29;20048;-78
2024/02/04 03:03:56;;;;;;;17.25;9.52;;;;;;;;;;9869606;29;20051;-79
2024/02/04 03:08:48;;;;;;;25.45;15.23;;;;;;;;;;9868674;29;20126;-81
2024/02/04 03:13:40;;;;;;;18.60;10.60;;;;;;;;;;9868339;29;20055;-80
2024/02/04 03:18:32;;;;;;;12.27;8.75;;;;;;;;;;9859026;29;20396;-80
2024/02/04 03:23:24;;;;;;;11.70;8.45;;;;;;;;;;9867797;29;20047;-80
2024/02/04 03:28:15;;;;;;;14.68;8.73;;;;;;;;;;9867468;29;20043;-81
2024/02/04 03:33:08;;;;;;;11.50;8.38;;;;;;;;;;9867985;29;20463;-80
2024/02/04 03:38:00;;;;;;;11.75;8.52;;;;;;;;;;9850756;29;20056;-80
2024/02/04 03:42:52;;;;;;;13.45;8.57;;;;;;;;;;9867833;29;20055;-81
2024/02/04 03:47:45;;;;;;;9.57;6.95;;;;;;;;;;9858419;29;20078;-80
2024/02/04 03:52:37;;;;;;;9.77;8.75;;;;;;;;;;9867044;29;20131;-80
2024/02/04 03:57:29;;;;;;;11.85;8.45;;;;;;;;;;9867705;29;20079;-80
2024/02/04 04:02:21;;;;;;;15.00;8.55;;;;;;;;;;9867767;29;20062;-80
2024/02/04 04:07:13;;;;;;;13.98;8.73;;;;;;;;;;9866463;29;20048;-81
2024/02/04 04:12:05;;;;;;;11.30;8.30;;;;;;;;;;9867343;29;20050;-80
2024/02/04 04:16:57;;;;;;;15.57;9.38;;;;;;;;;;9859311;29;20068;-80
2024/02/04 04:21:49;;;;;;;13.88;9.18;;;;;;;;;;9867702;29;20126;-80
2024/02/04 04:26:41;;;;;;;12.23;8.80;;;;;;;;;;9866242;29;20059;-80
2024/02/04 04:31:33;;;;;;;15.05;12.00;;;;;;;;;;9866316;29;20043;-81
2024/02/04 04:36:28;;;;;;;16.52;13.00;;;;;;;;;;9866957;29;20044;-80
2024/02/04 04:41:20;;;;;;;15.35;11.00;;;;;;;;;;9869796;29;20063;-80
2024/02/04 04:46:12;;;;;;;14.30;11.18;;;;;;;;;;9866261;29;20055;-80
2024/02/04 04:51:04;;;;;;;19.67;13.43;;;;;;;;;;9872992;29;20081;-80
2024/02/04 04:55:56;;;;;;;19.85;14.45;;;;;;;;;;9873664;29;20104;-80
2024/02/04 05:00:48;;;;;;;18.55;13.10;;;;;;;;;;9872947;29;20050;-78
2024/02/04 05:05:40;;;;;;;16.85;11.43;;;;;;;;;;9873018;29;20044;-79
2024/02/04 05:10:32;;;;;;;18.92;10.73;;;;;;;;;;9872990;29;20047;-81
2024/02/04 05:15:25;;;;;;;17.08;11.80;;;;;;;;;;9864312;29;20134;-80
2024/02/04 05:20:17;;;;;;;15.15;12.30;;;;;;;;;;9872860;29;20047;-81
2024/02/04 05:25:09;;;;;;;17.23;12.65;;;;;;;;;;9870958;29;20075;-80
2024/02/04 05:30:02;;;;;;;13.43;11.07;;;;;;;;;;9871614;29;20387;-80
2024/02/04 05:34:54;;;;;;;17.67;11.95;;;;;;;;;;9871828;29;20467;-80
2024/02/04 05:39:46;;;;;;;16.88;12.63;;;;;;;;;;9871611;29;20071;-81
2024/02/04 05:44:38;;;;;;;30.38;19.98;;;;;;;;;;9870914;29;20107;-80
2024/02/04 05:49:30;;;;;;;34.50;22.83;;;;;;;;;;9864031;29;20060;-79
2024/02/04 05:54:22;;;;;;;24.60;16.35;;;;;;;;;;9871783;29;20052;-80
2024/02/04 05:59:16;;;;;;;21.83;16.17;;;;;;;;;;9871259;29;20098;-80
2024/02/04 06:04:08;;;;;;;22.80;17.95;;;;;;;;;;9870641;29;20139;-80
2024/02/04 06:09:00;;;;;;;73.97;51.75;;;;;;;;;;9871179;29;20140;-80
2024/02/04 06:13:52;;;;;;;49.10;35.88;;;;;;;;;;9870444;29;20360;-80
2024/02/04 06:18:44;;;;;;;32.75;26.05;;;;;;;;;;9860757;29;20071;-78
2024/02/04 06:23:38;;;;;;;34.47;26.73;;;;;;;;;;9870075;29;20051;-80
2024/02/04 06:28:30;;;;;;;43.15;25.92;;;;;;;;;;9861526;29;20046;-80
2024/02/04 06:33:23;;;;;;;34.70;26.13;;;;;;;;;;9869937;29;20052;-80
2024/02/04 06:38:15;;;;;;;39.97;30.33;;;;;;;;;;9868816;29;20048;-79
2024/02/04 06:43:07;;;;;;;38.03;31.38;;;;;;;;;;9869265;29;20043;-80
2024/02/04 06:47:59;;;;;;;31.02;26.23;;;;;;;;;;9853999;29;20384;-80
2024/02/04 06:52:51;;;;;;;33.00;25.98;;;;;;;;;;9870023;29;20123;-79
2024/02/04 06:57:43;;;;;;;43.78;35.63;;;;;;;;;;9868179;29;20079;-79
2024/02/04 07:02:35;;;;;;;35.72;31.52;;;;;;;;;;9866981;29;20052;-79
2024/02/04 07:07:27;;;;;;;35.58;26.05;;;;;;;;;;9867165;29;20059;-79
2024/02/04 07:12:19;;;;;;;36.90;29.77;;;;;;;;;;9867522;29;20185;-78
2024/02/04 07:17:11;;;;;;;93.63;60.08;;;;;;;;;;9868152;29;20071;-79
2024/02/04 07:22:03;;;;;;;56.20;39.10;;;;;;;;;;9869458;29;20110;-79
2024/02/04 07:26:55;;;;;;;30.48;25.83;;;;;;;;;;9868878;29;20103;-78
2024/02/04 07:31:47;;;;;;;108.40;61.38;;;;;;;;;;9867583;29;20443;-79
2024/02/04 07:36:40;;;;;;;115.75;71.45;;;;;;;;;;9867506;29;20597;-79
2024/02/04 07:41:31;;;;;;;127.10;75.18;;;;;;;;;;9866888;29;20070;-77
2024/02/04 07:46:23;;;;;;;50.15;39.58;;;;;;;;;;9868993;29;20473;-79
2024/02/04 07:51:15;;;;;;;57.58;46.88;;;;;;;;;;9868834;29;20494;-79
2024/02/04 07:56:08;;;;;;;49.40;41.65;;;;;;;;;;9869990;29;20087;-80
2024/02/04 08:00:59;;;;;;;46.38;39.83;;;;;;;;;;9877111;29;20052;-76
2024/02/04 08:05:52;;;;;;;49.30;41.78;;;;;;;;;;9874684;29;20048;-79
2024/02/04 08:10:44;;;;;;;72.75;58.58;;;;;;;;;;9869416;29;20127;-80
2024/02/04 08:15:35;;;;;;;78.18;61.58;;;;;;;;;;9863693;29;20079;-79
2024/02/04 08:20:27;;;;;;;88.28;70.22;;;;;;;;;;9876123;29;20048;-78
2024/02/04 08:25:19;;;;;;;80.85;63.10;;;;;;;;;;9874995;29;20107;-78
2024/02/04 08:30:12;;;;;;;75.72;58.72;;;;;;;;;;9875757;29;20052;-78
2024/02/04 08:35:05;;;;;;;72.45;57.78;;;;;;;;;;9874924;29;20079;-78
2024/02/04 08:39:57;;;;;;;69.05;55.08;;;;;;;;;;9874189;29;20055;-78
2024/02/04 08:44:49;;;;;;;63.17;51.60;;;;;;;;;;9869862;29;20040;-78
2024/02/04 08:49:41;;;;;;;58.75;45.45;;;;;;;;;;9870659;29;20056;-78
2024/02/04 08:54:33;;;;;;;49.78;41.95;;;;;;;;;;9875725;29;20103;-78
2024/02/04 08:59:25;;;;;;;53.85;41.10;;;;;;;;;;9864394;29;20451;-78
2024/02/04 09:04:18;;;;;;;58.40;46.45;;;;;;;;;;9866014;29;20131;-78
2024/02/04 09:09:10;;;;;;;52.50;43.83;;;;;;;;;;9868582;29;20131;-79
2024/02/04 09:14:04;;;;;;;58.28;44.53;;;;;;;;;;9870047;29;20056;-78
2024/02/04 09:18:55;;;;;;;54.83;43.83;;;;;;;;;;9871536;29;20051;-78
2024/02/04 09:23:48;;;;;;;59.97;47.45;;;;;;;;;;9869816;29;20044;-78
2024/02/04 09:28:40;;;;;;;53.45;42.17;;;;;;;;;;9862780;29;20063;-77
2024/02/04 09:33:32;;;;;;;54.90;41.85;;;;;;;;;;9869356;29;20058;-78
2024/02/04 09:38:24;;;;;;;60.35;43.67;;;;;;;;;;9870469;29;20123;-78
2024/02/04 09:43:18;;;;;;;59.67;42.65;;;;;;;;;;9873680;29;20044;-78
2024/02/04 09:48:11;;;;;;;51.88;37.85;;;;;;;;;;9869927;29;20044;-77
2024/02/04 09:53:08;;;;;;;47.42;37.38;;;;;;;;;;9857688;29;20094;-77
2024/02/04 09:58:01;;;;;;;46.05;36.67;;;;;;;;;;9855256;29;20051;-77
2024/02/04 10:02:53;;;;;;;43.08;35.10;;;;;;;;;;9862216;29;20048;-77
2024/02/04 10:07:45;;;;;;;50.15;36.92;;;;;;;;;;9865671;29;20130;-77
2024/02/04 10:12:40;;;;;;;46.20;36.78;;;;;;;;;;9871767;29;20058;-78
2024/02/04 10:17:32;;;;;;;48.08;39.42;;;;;;;;;;9863455;29;20040;-78
2024/02/04 10:22:27;;;;;;;51.40;37.25;;;;;;;;;;9872040;29;20050;-77
2024/02/04 10:27:19;;;;;;;48.50;36.90;;;;;;;;;;9870809;29;20514;-78
2024/02/04 10:32:23;;;;;;;47.90;36.63;;;;;;;;;;9871316;29;20047;-78
2024/02/04 10:37:16;;;;;;;47.92;37.72;;;;;;;;;;9870284;29;20498;-78
2024/02/04 10:42:09;;;;;;;44.45;35.70;;;;;;;;;;9871126;29;20071;-77
2024/02/04 10:47:06;;;;;;;57.88;39.38;;;;;;;;;;9853666;29;20055;-76
2024/02/04 10:51:59;;;;;;;43.25;37.67;;;;;;;;;;9853442;29;20056;-77
2024/02/04 10:56:56;;;;;;;46.47;37.38;;;;;;;;;;9854821;29;20082;-77
2024/02/04 11:01:48;;;;;;;61.85;37.95;;;;;;;;;;9869221;29;20388;-77
2024/02/04 11:06:43;;;;;;;48.45;34.75;;;;;;;;;;9863250;29;20143;-77
2024/02/04 11:11:40;;;;;;;48.20;37.90;;;;;;;;;;9869767;29;20126;-77
2024/02/04 11:16:40;;;;;;;47.40;37.33;;;;;;;;;;9869659;29;20431;-77
2024/02/04 11:21:51;;;;;;;54.40;39.13;;;;;;;;;;9868632;29;20388;-77
2024/02/04 11:26:43;;;;;;;47.08;36.92;;;;;;;;;;9852593;29;20443;-77
2024/02/04 11:31:39;;;;;;;48.63;37.65;;;;;;;;;;9868948;29;20095;-77
2024/02/04 11:36:37;;;;;;;45.88;37.78;;;;;;;;;;9869210;29;20782;-77
2024/02/04 11:41:30;;;;;;;51.15;38.35;;;;;;;;;;9868790;29;20043;-77
2024/02/04 11:46:22;;;;;;;44.22;37.95;;;;;;;;;;9869498;29;20055;-77
2024/02/04 11:51:14;;;;;;;46.45;35.75;;;;;;;;;;9872826;29;20043;-77
2024/02/04 11:56:06;;;;;;;46.80;38.35;;;;;;;;;;9859977;29;20051;-77
2024/02/04 12:00:59;;;;;;;50.33;40.65;;;;;;;;;;9860065;29;20052;-77
2024/02/04 12:05:51;;;;;;;52.40;40.38;;;;;;;;;;9875707;29;20071;-78
2024/02/04 12:10:43;;;;;;;50.63;38.70;;;;;;;;;;9875290;29;20146;-76
2024/02/04 12:15:37;;;;;;;51.58;41.42;;;;;;;;;;9860921;29;20058;-77
2024/02/04 12:20:29;;;;;;;52.15;41.83;;;;;;;;;;9875231;29;20042;-77
2024/02/04 12:25:21;;;;;;;56.33;42.58;;;;;;;;;;9875163;29;20427;-76
2024/02/04 12:30:13;;;;;;;52.55;41.22;;;;;;;;;;9873511;29;20044;-77
2024/02/04 12:35:06;;;;;;;46.97;41.42;;;;;;;;;;9873711;29;20153;-77
2024/02/04 12:39:59;;;;;;;57.58;41.30;;;;;;;;;;9871534;29;20048;-77
2024/02/04 12:44:52;;;;;;;52.10;42.03;;;;;;;;;;9869009;29;20048;-77
2024/02/04 12:49:44;;;;;;;53.53;42.55;;;;;;;;;;9868274;29;20083;-77
2024/02/04 12:54:43;;;;;;;50.72;39.90;;;;;;;;;;9862305;29;20147;-77
2024/02/04 12:59:35;;;;;;;52.08;40.80;;;;;;;;;;9873357;29;20494;-78
2024/02/04 13:04:36;;;;;;;53.03;41.92;;;;;;;;;;9873939;29;20044;-77
2024/02/04 13:09:28;;;;;;;42.50;35.75;;;;;;;;;;9867925;29;20167;-78
2024/02/04 13:14:21;;;;;;;47.47;37.10;;;;;;;;;;9865438;29;20052;-77
2024/02/04 13:19:14;;;;;;;42.20;34.85;;;;;;;;;;9859930;29;20055;-77
2024/02/04 13:24:06;;;;;;;41.45;34.03;;;;;;;;;;9873393;29;20048;-77
2024/02/04 13:28:58;;;;;;;39.45;34.00;;;;;;;;;;9866878;29;20055;-77
2024/02/04 13:33:50;;;;;;;38.42;31.25;;;;;;;;;;9864072;29;20494;-77
2024/02/04 13:38:42;;;;;;;46.85;35.33;;;;;;;;;;9871003;29;20067;-73
2024/02/04 13:43:38;;;;;;;43.45;32.78;;;;;;;;;;9852396;29;20098;-73
2024/02/04 13:48:30;;;;;;;42.67;32.95;;;;;;;;;;9857803;29;20430;-72
2024/02/04 13:53:23;;;;;;;41.72;32.72;;;;;;;;;;9869057;29;20051;-71
2024/02/04 13:58:14;;;;;;;38.67;33.10;;;;;;;;;;9866077;29;20055;-72
2024/02/04 14:03:06;;;;;;;42.10;33.25;;;;;;;;;;9852912;29;20364;-72
2024/02/04 14:07:59;;;;;;;39.63;32.65;;;;;;;;;;9857565;29;20391;-71
2024/02/04 14:12:51;;;;;;;38.53;32.47;;;;;;;;;;9855794;29;20062;-71
2024/02/04 14:17:43;;;;;;;39.80;32.05;;;;;;;;;;9855347;29;20423;-73
2024/02/04 14:22:35;;;;;;;36.53;31.73;;;;;;;;;;9871157;29;20110;-72
2024/02/04 14:27:27;;;;;;;41.53;31.88;;;;;;;;;;9870284;29;20094;-73
2024/02/04 14:32:19;;;;;;;40.65;32.28;;;;;;;;;;9870123;29;20047;-73
2024/02/04 14:37:11;;;;;;;43.00;33.22;;;;;;;;;;9867217;29;20054;-73
2024/02/04 14:42:05;;;;;;;46.50;34.63;;;;;;;;;;9869691;29;20059;-73
2024/02/04 14:46:57;;;;;;;38.80;33.22;;;;;;;;;;9869825;29;20044;-73
2024/02/04 14:51:49;;;;;;;41.10;33.67;;;;;;;;;;9868429;29;20447;-73
2024/02/04 14:56:42;;;;;;;38.83;33.17;;;;;;;;;;9869036;29;20052;-73
2024/02/04 15:01:34;;;;;;;42.42;35.33;;;;;;;;;;9867988;29;20035;-73
2024/02/04 15:06:29;;;;;;;43.63;33.28;;;;;;;;;;9867019;29;20054;-74
2024/02/04 15:11:22;;;;;;;38.05;31.48;;;;;;;;;;9865678;29;20091;-73
2024/02/04 15:16:14;;;;;;;43.25;34.97;;;;;;;;;;9867248;29;20058;-72
2024/02/04 15:21:07;;;;;;;40.25;33.45;;;;;;;;;;9869471;29;20047;-72
2024/02/04 15:25:59;;;;;;;38.65;33.65;;;;;;;;;;9868372;29;20048;-73
2024/02/04 15:30:51;;;;;;;39.85;32.15;;;;;;;;;;9868563;29;20059;-72
2024/02/04 15:35:43;;;;;;;41.00;33.20;;;;;;;;;;9868670;29;20138;-73
2024/02/04 15:40:36;;;;;;;50.80;38.95;;;;;;;;;;9869350;29;20459;-72
2024/02/04 15:45:28;;;;;;;46.83;39.03;;;;;;;;;;9860756;29;20074;-71
2024/02/04 15:50:21;;;;;;;60.15;45.42;;;;;;;;;;9865418;29;20066;-72
2024/02/04 15:55:15;;;;;;;50.92;40.17;;;;;;;;;;9868806;29;20044;-72
2024/02/04 16:00:17;;;;;;;40.88;33.15;;;;;;;;;;9868178;29;20070;-72
2024/02/04 16:05:10;;;;;;;42.33;33.53;;;;;;;;;;9866984;29;20091;-73
2024/02/04 16:10:03;;;;;;;44.67;32.67;;;;;;;;;;9866520;29;20040;-73
2024/02/04 16:14:58;;;;;;;44.47;34.33;;;;;;;;;;9862443;29;20098;-73
2024/02/04 16:19:53;;;;;;;38.58;32.40;;;;;;;;;;9863004;29;20135;-74
2024/02/04 16:24:46;;;;;;;47.30;36.58;;;;;;;;;;9866269;29;20439;-74
2024/02/04 16:29:41;;;;;;;69.43;57.60;;;;;;;;;;9866960;29;20067;-75
2024/02/04 16:34:34;;;;;;;53.28;43.63;;;;;;;;;;9865488;29;20101;-74
2024/02/04 16:39:30;;;;;;;59.10;48.20;;;;;;;;;;9872047;29;20043;-74
2024/02/04 16:44:22;;;;;;;41.42;32.33;;;;;;;;;;9871772;29;20059;-74
2024/02/04 16:49:14;;;;;;;50.17;38.05;;;;;;;;;;9865997;29;20056;-74
2024/02/04 16:54:11;;;;;;;50.22;38.90;;;;;;;;;;9872682;29;20048;-74
2024/02/04 16:59:03;;;;;;;48.45;37.83;;;;;;;;;;9870193;29;20039;-75
2024/02/04 17:03:55;;;;;;;49.72;35.78;;;;;;;;;;9870430;29;20055;-75
2024/02/04 17:08:48;;;;;;;92.28;72.80;;;;;;;;;;9872361;29;20043;-75
2024/02/04 17:13:40;;;;;;;51.92;38.45;;;;;;;;;;9874105;29;20410;-75
2024/02/04 17:18:51;;;;;;;69.32;47.00;;;;;;;;;;9873536;29;20099;-72
2024/02/04 17:23:46;;;;;;;62.10;45.13;;;;;;;;;;9871156;29;20394;-72
2024/02/04 17:28:38;;;;;;;45.40;35.10;;;;;;;;;;9850040;29;20482;-73
2024/02/04 17:33:30;;;;;;;47.50;39.35;;;;;;;;;;9867856;29;20103;-73
2024/02/04 17:38:23;;;;;;;45.47;36.10;;;;;;;;;;9868396;29;20059;-73
2024/02/04 17:43:16;;;;;;;42.95;34.40;;;;;;;;;;9868596;29;20549;-74
2024/02/04 17:48:08;;;;;;;44.83;34.60;;;;;;;;;;9859756;29;20059;-75
2024/02/04 17:53:00;;;;;;;44.13;34.90;;;;;;;;;;9868611;29;20399;-73
2024/02/04 17:57:53;;;;;;;43.90;35.75;;;;;;;;;;9867957;29;20044;-73
2024/02/04 18:02:45;;;;;;;44.13;37.13;;;;;;;;;;9867334;29;20055;-73
2024/02/04 18:07:40;;;;;;;58.95;41.83;;;;;;;;;;9866623;29;20143;-73
2024/02/04 18:12:33;;;;;;;43.28;36.03;;;;;;;;;;9866917;29;20048;-73
2024/02/04 18:17:25;;;;;;;43.20;35.40;;;;;;;;;;9859160;29;20050;-73
2024/02/04 18:22:19;;;;;;;49.72;37.75;;;;;;;;;;9866543;29;20056;-73
2024/02/04 18:27:11;;;;;;;70.50;55.72;;;;;;;;;;9866962;29;20118;-73
2024/02/04 18:32:03;;;;;;;64.22;51.58;;;;;;;;;;9863147;29;20130;-74
2024/02/04 18:36:55;;;;;;;58.83;46.03;;;;;;;;;;9867733;29;20062;-73
2024/02/04 18:41:47;;;;;;;60.67;50.00;;;;;;;;;;9851833;29;20051;-73
2024/02/04 18:46:41;;;;;;;49.90;40.58;;;;;;;;;;9860797;29;20419;-72
2024/02/04 18:51:33;;;;;;;50.40;38.40;;;;;;;;;;9852335;29;20059;-73
2024/02/04 18:56:25;;;;;;;51.70;38.78;;;;;;;;;;9865393;29;20052;-74
2024/02/04 19:01:19;;;;;;;54.72;44.13;;;;;;;;;;9858808;29;20111;-75
2024/02/04 19:06:12;;;;;;;54.80;40.15;;;;;;;;;;9860883;29;20471;-74
2024/02/04 19:11:05;;;;;;;52.65;41.50;;;;;;;;;;9865011;29;20036;-74
2024/02/04 19:15:57;;;;;;;57.80;45.30;;;;;;;;;;9869045;29;20052;-75
2024/02/04 19:20:50;;;;;;;66.90;53.25;;;;;;;;;;9869736;29;20036;-75
2024/02/04 19:25:42;;;;;;;52.75;42.63;;;;;;;;;;9866378;29;20079;-76
2024/02/04 19:30:39;;;;;;;56.53;44.67;;;;;;;;;;9868775;29;20044;-76
2024/02/04 19:35:31;;;;;;;76.15;53.67;;;;;;;;;;9859165;29;20054;-76
2024/02/04 19:40:24;;;;;;;72.20;58.42;;;;;;;;;;9854084;29;20060;-76
2024/02/04 19:45:19;;;;;;;66.63;51.90;;;;;;;;;;9858517;29;20055;-76
2024/02/04 19:50:11;;;;;;;66.85;53.10;;;;;;;;;;9860379;29;20048;-77
2024/02/04 19:55:04;;;;;;;68.20;54.33;;;;;;;;;;9861331;29;20139;-76
2024/02/04 19:59:56;;;;;;;66.43;54.67;;;;;;;;;;9862664;29;20052;-76
2024/02/04 20:04:49;;;;;;;72.38;56.72;;;;;;;;;;9862699;29;20060;-76
2024/02/04 20:09:41;;;;;;;75.32;58.30;;;;;;;;;;9851975;29;20050;-76
2024/02/04 20:14:34;;;;;;;79.97;64.10;;;;;;;;;;9872118;29;20047;-77
2024/02/04 20:19:26;;;;;;;76.65;63.50;;;;;;;;;;9856985;29;20066;-77
2024/02/04 20:24:18;;;;;;;82.93;65.72;;;;;;;;;;9858089;29;20040;-76
2024/02/04 20:29:10;;;;;;;78.63;62.08;;;;;;;;;;9853345;29;20059;-78
2024/02/04 20:34:07;;;;;;;78.32;63.17;;;;;;;;;;9866750;29;20054;-77
2024/02/04 20:39:00;;;;;;;77.85;61.90;;;;;;;;;;9839945;29;20040;-76
2024/02/04 20:43:53;;;;;;;70.07;58.83;;;;;;;;;;9857389;29;20048;-77
2024/02/04 20:48:46;;;;;;;81.40;60.97;;;;;;;;;;9869237;29;20359;-77
2024/02/04 20:53:38;;;;;;;71.68;57.40;;;;;;;;;;9862488;29;20115;-76
2024/02/04 20:58:33;;;;;;;69.20;54.90;;;;;;;;;;9856219;29;20047;-77
2024/02/04 21:03:25;;;;;;;64.25;52.08;;;;;;;;;;9867004;29;20134;-77
2024/02/04 21:08:17;;;;;;;59.78;50.50;;;;;;;;;;9862245;29;20098;-77
2024/02/04 21:13:09;;;;;;;52.80;42.05;;;;;;;;;;9862065;29;20044;-77
2024/02/04 21:18:03;;;;;;;63.80;46.78;;;;;;;;;;9851179;29;20047;-78
2024/02/04 21:22:55;;;;;;;51.92;42.97;;;;;;;;;;9857620;29;20062;-77
2024/02/04 21:27:47;;;;;;;55.22;43.35;;;;;;;;;;9851295;29;20040;-78
2024/02/04 21:32:40;;;;;;;54.50;44.50;;;;;;;;;;9855552;29;20375;-79
2024/02/04 21:37:32;;;;;;;62.78;49.33;;;;;;;;;;9859898;29;20044;-79
2024/02/04 21:42:25;;;;;;;58.45;47.92;;;;;;;;;;9859563;29;20051;-78
2024/02/04 21:47:19;;;;;;;56.88;45.13;;;;;;;;;;9858899;29;20052;-78
2024/02/04 21:52:14;;;;;;;56.05;44.10;;;;;;;;;;9854374;29;20058;-78
2024/02/04 21:57:06;;;;;;;58.92;41.65;;;;;;;;;;9858815;29;20510;-78
2024/02/04 22:01:58;;;;;;;50.50;38.08;;;;;;;;;;9864440;29;20791;-78
2024/02/04 22:06:50;;;;;;;46.53;38.05;;;;;;;;;;9859964;29;20066;-78
2024/02/04 22:11:43;;;;;;;49.67;39.20;;;;;;;;;;9863502;29;20059;-78
2024/02/04 22:16:43;;;;;;;46.30;39.38;;;;;;;;;;9849387;29;20388;-78
2024/02/04 22:21:35;;;;;;;45.95;34.97;;;;;;;;;;9866563;29;20047;-77
2024/02/04 22:26:26;;;;;;;50.03;38.47;;;;;;;;;;9865067;29;20891;-77
2024/02/04 22:31:18;;;;;;;45.80;37.05;;;;;;;;;;9866119;29;20051;-77
2024/02/04 22:36:10;;;;;;;87.85;51.97;;;;;;;;;;9858444;29;20051;-77
2024/02/04 22:41:02;;;;;;;62.30;42.30;;;;;;;;;;9863192;29;20048;-77
2024/02/04 22:45:54;;;;;;;56.90;40.30;;;;;;;;;;9863099;29;20047;-77
2024/02/04 22:50:46;;;;;;;48.20;35.28;;;;;;;;;;9865566;29;20048;-77
2024/02/04 22:55:38;;;;;;;57.45;43.70;;;;;;;;;;9866634;29;20168;-77
2024/02/04 23:00:30;;;;;;;44.42;38.58;;;;;;;;;;9865869;29;20047;-77
2024/02/04 23:05:22;;;;;;;46.38;35.58;;;;;;;;;;9851324;29;20048;-77
2024/02/04 23:10:14;;;;;;;33.58;28.38;;;;;;;;;;9855043;29;20439;-77
2024/02/04 23:15:07;;;;;;;30.45;26.35;;;;;;;;;;9858021;29;20138;-77
2024/02/04 23:19:59;;;;;;;39.55;29.63;;;;;;;;;;9857775;29;21034;-77
2024/02/04 23:24:56;;;;;;;38.78;31.67;;;;;;;;;;9862402;29;20056;-76
2024/02/04 23:29:47;;;;;;;37.92;30.15;;;;;;;;;;9853953;29;20043;-77
2024/02/04 23:34:39;;;;;;;37.45;31.25;;;;;;;;;;9850183;29;20434;-76
2024/02/04 23:39:31;;;;;;;40.10;29.85;;;;;;;;;;9861403;29;20363;-76
2024/02/04 23:44:23;;;;;;;34.03;27.23;;;;;;;;;;9862947;29;20131;-77
2024/02/04 23:49:16;;;;;;;36.08;26.42;;;;;;;;;;9865970;29;20090;-77
2024/02/04 23:54:08;;;;;;;29.45;24.90;;;;;;;;;;9874513;29;20335;-77
2024/02/04 23:59:01;;;;;;;24.35;19.00;;;;;;;;;;9872174;29;20051;-77
